sensor_id;sensor_type;location;lat;lon;timestamp;P1;durP1;ratioP1;P2;durP2;ratioP2
4698;SDS011;33708;49.466;11.176;2023-06-14T00:00:41;14.40;;;5.60;;
4698;SDS011;33708;49.466;11.176;2023-06-14T00:03:08;13.03;;;5.23;;
4698;SDS011;33708;49.466;11.176;2023-06-14T00:05:35;21.40;;;4.90;;
4698;SDS011;33708;49.466;11.176;2023-06-14T00:08:06;15.47;;;5.47;;
4698;SDS011;33708;49.466;11.176;2023-06-14T00:10:33;18.53;;;5.77;;
4698;SDS011;33708;49.466;11.176;2023-06-14T00:13:00;15.37;;;5.20;;
4698;SDS011;33708;49.466;11.176;2023-06-14T00:15:26;35.03;;;6.20;;
4698;SDS011;33708;49.466;11.176;2023-06-14T00:17:53;17.43;;;5.60;;
4698;SDS011;33708;49.466;11.176;2023-06-14T00:20:19;18.70;;;5.10;;
4698;SDS011;33708;49.466;11.176;2023-06-14T00:22:45;16.43;;;6.17;;
4698;SDS011;33708;49.466;11.176;2023-06-14T00:25:11;17.10;;;5.53;;
4698;SDS011;33708;49.466;11.176;2023-06-14T00:27:39;16.23;;;4.90;;
4698;SDS011;33708;49.466;11.176;2023-06-14T00:30:06;14.60;;;5.10;;
4698;SDS011;33708;49.466;11.176;2023-06-14T00:32:32;18.47;;;5.10;;
4698;SDS011;33708;49.466;11.176;2023-06-14T00:34:57;15.53;;;6.10;;
4698;SDS011;33708;49.466;11.176;2023-06-14T00:37:23;16.60;;;5.90;;
4698;SDS011;33708;49.466;11.176;2023-06-14T00:39:48;13.63;;;5.60;;
4698;SDS011;33708;49.466;11.176;2023-06-14T00:42:27;12.80;;;4.90;;
4698;SDS011;33708;49.466;11.176;2023-06-14T00:44:57;18.73;;;4.47;;
4698;SDS011;33708;49.466;11.176;2023-06-14T00:47:32;19.67;;;5.20;;
4698;SDS011;33708;49.466;11.176;2023-06-14T00:50:06;18.30;;;5.37;;
4698;SDS011;33708;49.466;11.176;2023-06-14T00:52:33;14.63;;;5.63;;
4698;SDS011;33708;49.466;11.176;2023-06-14T00:54:59;12.97;;;4.90;;
4698;SDS011;33708;49.466;11.176;2023-06-14T00:57:25;15.40;;;5.33;;
4698;SDS011;33708;49.466;11.176;2023-06-14T00:59:52;15.03;;;5.97;;
4698;SDS011;33708;49.466;11.176;2023-06-14T01:02:18;18.27;;;5.73;;
4698;SDS011;33708;49.466;11.176;2023-06-14T01:07:48;14.73;;;5.10;;
4698;SDS011;33708;49.466;11.176;2023-06-14T01:13:51;13.03;;;5.00;;
4698;SDS011;33708;49.466;11.176;2023-06-14T01:16:21;17.07;;;5.07;;
4698;SDS011;33708;49.466;11.176;2023-06-14T01:18:47;20.70;;;5.37;;
4698;SDS011;33708;49.466;11.176;2023-06-14T01:21:23;15.80;;;4.73;;
4698;SDS011;33708;49.466;11.176;2023-06-14T01:23:50;15.53;;;5.33;;
4698;SDS011;33708;49.466;11.176;2023-06-14T01:26:18;14.50;;;5.83;;
4698;SDS011;33708;49.466;11.176;2023-06-14T01:28:45;17.90;;;5.10;;
4698;SDS011;33708;49.466;11.176;2023-06-14T01:31:14;16.57;;;5.50;;
4698;SDS011;33708;49.466;11.176;2023-06-14T01:33:42;16.20;;;5.10;;
4698;SDS011;33708;49.466;11.176;2023-06-14T01:36:09;16.77;;;5.53;;
4698;SDS011;33708;49.466;11.176;2023-06-14T01:38:35;20.33;;;5.47;;
4698;SDS011;33708;49.466;11.176;2023-06-14T01:41:02;16.40;;;4.77;;
4698;SDS011;33708;49.466;11.176;2023-06-14T01:43:29;15.17;;;5.93;;
4698;SDS011;33708;49.466;11.176;2023-06-14T01:45:56;15.97;;;5.40;;
4698;SDS011;33708;49.466;11.176;2023-06-14T01:48:22;14.10;;;4.93;;
4698;SDS011;33708;49.466;11.176;2023-06-14T01:50:49;16.97;;;5.10;;
4698;SDS011;33708;49.466;11.176;2023-06-14T01:53:15;19.57;;;4.70;;
4698;SDS011;33708;49.466;11.176;2023-06-14T01:55:40;16.93;;;5.47;;
4698;SDS011;33708;49.466;11.176;2023-06-14T01:58:08;14.40;;;5.23;;
4698;SDS011;33708;49.466;11.176;2023-06-14T02:00:34;15.30;;;5.87;;
4698;SDS011;33708;49.466;11.176;2023-06-14T02:03:00;20.70;;;5.10;;
4698;SDS011;33708;49.466;11.176;2023-06-14T02:05:25;17.90;;;5.63;;
4698;SDS011;33708;49.466;11.176;2023-06-14T02:07:51;19.03;;;6.20;;
4698;SDS011;33708;49.466;11.176;2023-06-14T02:10:18;19.23;;;4.70;;
4698;SDS011;33708;49.466;11.176;2023-06-14T02:12:44;13.73;;;5.13;;
4698;SDS011;33708;49.466;11.176;2023-06-14T02:15:09;17.63;;;4.73;;
4698;SDS011;33708;49.466;11.176;2023-06-14T02:17:41;14.00;;;4.67;;
4698;SDS011;33708;49.466;11.176;2023-06-14T02:20:08;14.43;;;4.40;;
4698;SDS011;33708;49.466;11.176;2023-06-14T02:22:34;21.10;;;5.20;;
4698;SDS011;33708;49.466;11.176;2023-06-14T02:25:00;17.20;;;4.80;;
4698;SDS011;33708;49.466;11.176;2023-06-14T02:27:25;13.83;;;4.87;;
4698;SDS011;33708;49.466;11.176;2023-06-14T02:29:51;16.03;;;4.50;;
4698;SDS011;33708;49.466;11.176;2023-06-14T02:32:17;17.10;;;4.50;;
4698;SDS011;33708;49.466;11.176;2023-06-14T02:34:42;25.83;;;4.50;;
4698;SDS011;33708;49.466;11.176;2023-06-14T02:37:08;13.63;;;5.07;;
4698;SDS011;33708;49.466;11.176;2023-06-14T02:39:34;14.20;;;4.57;;
4698;SDS011;33708;49.466;11.176;2023-06-14T02:42:00;13.40;;;4.87;;
4698;SDS011;33708;49.466;11.176;2023-06-14T02:44:26;14.90;;;4.80;;
4698;SDS011;33708;49.466;11.176;2023-06-14T02:46:52;12.57;;;5.07;;
4698;SDS011;33708;49.466;11.176;2023-06-14T02:49:19;17.63;;;5.20;;
4698;SDS011;33708;49.466;11.176;2023-06-14T02:51:44;13.27;;;5.03;;
4698;SDS011;33708;49.466;11.176;2023-06-14T02:54:10;26.90;;;5.20;;
4698;SDS011;33708;49.466;11.176;2023-06-14T02:56:36;18.60;;;4.70;;
4698;SDS011;33708;49.466;11.176;2023-06-14T02:59:01;16.90;;;5.17;;
4698;SDS011;33708;49.466;11.176;2023-06-14T03:01:27;17.80;;;5.10;;
4698;SDS011;33708;49.466;11.176;2023-06-14T03:04:00;16.80;;;5.90;;
4698;SDS011;33708;49.466;11.176;2023-06-14T03:06:27;17.73;;;6.07;;
4698;SDS011;33708;49.466;11.176;2023-06-14T03:08:55;19.30;;;6.00;;
4698;SDS011;33708;49.466;11.176;2023-06-14T03:11:25;16.67;;;5.70;;
4698;SDS011;33708;49.466;11.176;2023-06-14T03:13:51;17.57;;;6.17;;
4698;SDS011;33708;49.466;11.176;2023-06-14T03:16:17;16.70;;;5.43;;
4698;SDS011;33708;49.466;11.176;2023-06-14T03:18:46;14.20;;;5.07;;
4698;SDS011;33708;49.466;11.176;2023-06-14T03:21:15;22.30;;;5.90;;
4698;SDS011;33708;49.466;11.176;2023-06-14T03:23:42;17.63;;;5.63;;
4698;SDS011;33708;49.466;11.176;2023-06-14T03:26:08;13.90;;;4.93;;
4698;SDS011;33708;49.466;11.176;2023-06-14T03:28:33;17.60;;;5.80;;
4698;SDS011;33708;49.466;11.176;2023-06-14T03:30:59;14.50;;;5.17;;
4698;SDS011;33708;49.466;11.176;2023-06-14T03:33:25;12.80;;;4.77;;
4698;SDS011;33708;49.466;11.176;2023-06-14T03:35:50;16.70;;;5.30;;
4698;SDS011;33708;49.466;11.176;2023-06-14T03:38:16;21.83;;;5.77;;
4698;SDS011;33708;49.466;11.176;2023-06-14T03:40:42;18.47;;;5.33;;
4698;SDS011;33708;49.466;11.176;2023-06-14T03:43:09;19.43;;;6.30;;
4698;SDS011;33708;49.466;11.176;2023-06-14T03:45:35;17.43;;;6.60;;
4698;SDS011;33708;49.466;11.176;2023-06-14T03:48:01;14.40;;;6.30;;
4698;SDS011;33708;49.466;11.176;2023-06-14T03:50:31;16.97;;;6.07;;
4698;SDS011;33708;49.466;11.176;2023-06-14T03:52:57;15.90;;;9.00;;
4698;SDS011;33708;49.466;11.176;2023-06-14T03:55:23;22.50;;;10.20;;
4698;SDS011;33708;49.466;11.176;2023-06-14T03:57:50;21.27;;;13.63;;
4698;SDS011;33708;49.466;11.176;2023-06-14T04:00:16;18.37;;;13.10;;
4698;SDS011;33708;49.466;11.176;2023-06-14T04:02:43;17.67;;;11.47;;
4698;SDS011;33708;49.466;11.176;2023-06-14T04:05:09;19.27;;;11.07;;
4698;SDS011;33708;49.466;11.176;2023-06-14T04:07:35;21.17;;;9.70;;
4698;SDS011;33708;49.466;11.176;2023-06-14T04:10:10;20.17;;;9.27;;
4698;SDS011;33708;49.466;11.176;2023-06-14T04:12:37;19.00;;;7.57;;
4698;SDS011;33708;49.466;11.176;2023-06-14T04:15:03;22.70;;;7.03;;
4698;SDS011;33708;49.466;11.176;2023-06-14T04:17:30;19.30;;;5.70;;
4698;SDS011;33708;49.466;11.176;2023-06-14T04:19:58;19.07;;;6.30;;
4698;SDS011;33708;49.466;11.176;2023-06-14T04:22:25;13.90;;;5.30;;
4698;SDS011;33708;49.466;11.176;2023-06-14T04:24:53;19.50;;;6.53;;
4698;SDS011;33708;49.466;11.176;2023-06-14T04:27:21;18.30;;;5.60;;
4698;SDS011;33708;49.466;11.176;2023-06-14T04:29:51;16.27;;;5.47;;
4698;SDS011;33708;49.466;11.176;2023-06-14T04:32:22;16.00;;;5.20;;
4698;SDS011;33708;49.466;11.176;2023-06-14T04:34:50;15.00;;;5.40;;
4698;SDS011;33708;49.466;11.176;2023-06-14T04:37:18;13.07;;;4.77;;
4698;SDS011;33708;49.466;11.176;2023-06-14T04:39:46;14.27;;;5.37;;
4698;SDS011;33708;49.466;11.176;2023-06-14T04:42:12;14.00;;;4.53;;
4698;SDS011;33708;49.466;11.176;2023-06-14T04:44:40;14.73;;;5.47;;
4698;SDS011;33708;49.466;11.176;2023-06-14T04:47:06;13.90;;;4.63;;
4698;SDS011;33708;49.466;11.176;2023-06-14T04:49:32;15.33;;;5.13;;
4698;SDS011;33708;49.466;11.176;2023-06-14T04:51:59;19.40;;;4.67;;
4698;SDS011;33708;49.466;11.176;2023-06-14T04:54:26;17.57;;;5.40;;
4698;SDS011;33708;49.466;11.176;2023-06-14T04:56:53;13.33;;;4.83;;
4698;SDS011;33708;49.466;11.176;2023-06-14T04:59:20;14.40;;;5.20;;
4698;SDS011;33708;49.466;11.176;2023-06-14T05:01:48;15.07;;;5.70;;
4698;SDS011;33708;49.466;11.176;2023-06-14T05:04:18;13.50;;;5.10;;
4698;SDS011;33708;49.466;11.176;2023-06-14T05:06:44;16.90;;;5.13;;
4698;SDS011;33708;49.466;11.176;2023-06-14T05:09:13;13.20;;;5.40;;
4698;SDS011;33708;49.466;11.176;2023-06-14T05:11:40;14.60;;;5.00;;
4698;SDS011;33708;49.466;11.176;2023-06-14T05:14:10;19.60;;;5.13;;
4698;SDS011;33708;49.466;11.176;2023-06-14T05:16:36;16.47;;;5.63;;
4698;SDS011;33708;49.466;11.176;2023-06-14T05:19:02;14.90;;;5.67;;
4698;SDS011;33708;49.466;11.176;2023-06-14T05:21:29;16.23;;;5.40;;
4698;SDS011;33708;49.466;11.176;2023-06-14T05:23:55;18.70;;;6.33;;
4698;SDS011;33708;49.466;11.176;2023-06-14T05:26:21;19.77;;;6.30;;
4698;SDS011;33708;49.466;11.176;2023-06-14T05:28:48;16.90;;;5.90;;
4698;SDS011;33708;49.466;11.176;2023-06-14T05:31:15;14.77;;;5.50;;
4698;SDS011;33708;49.466;11.176;2023-06-14T05:33:41;15.50;;;5.53;;
4698;SDS011;33708;49.466;11.176;2023-06-14T05:36:06;14.10;;;5.83;;
4698;SDS011;33708;49.466;11.176;2023-06-14T05:38:32;14.00;;;5.73;;
4698;SDS011;33708;49.466;11.176;2023-06-14T05:40:57;17.50;;;6.70;;
4698;SDS011;33708;49.466;11.176;2023-06-14T05:43:24;18.93;;;6.10;;
4698;SDS011;33708;49.466;11.176;2023-06-14T05:45:50;14.40;;;5.67;;
4698;SDS011;33708;49.466;11.176;2023-06-14T05:48:15;14.07;;;5.47;;
4698;SDS011;33708;49.466;11.176;2023-06-14T05:50:41;21.33;;;5.80;;
4698;SDS011;33708;49.466;11.176;2023-06-14T05:53:06;19.50;;;5.60;;
4698;SDS011;33708;49.466;11.176;2023-06-14T05:55:32;15.07;;;4.80;;
4698;SDS011;33708;49.466;11.176;2023-06-14T05:57:57;13.50;;;5.27;;
4698;SDS011;33708;49.466;11.176;2023-06-14T06:00:23;16.40;;;5.40;;
4698;SDS011;33708;49.466;11.176;2023-06-14T06:02:49;16.13;;;5.20;;
4698;SDS011;33708;49.466;11.176;2023-06-14T06:05:14;16.53;;;4.93;;
4698;SDS011;33708;49.466;11.176;2023-06-14T06:07:40;19.03;;;4.73;;
4698;SDS011;33708;49.466;11.176;2023-06-14T06:10:07;15.20;;;5.40;;
4698;SDS011;33708;49.466;11.176;2023-06-14T06:12:33;14.73;;;4.70;;
4698;SDS011;33708;49.466;11.176;2023-06-14T06:14:59;13.27;;;4.13;;
4698;SDS011;33708;49.466;11.176;2023-06-14T06:17:27;17.00;;;4.73;;
4698;SDS011;33708;49.466;11.176;2023-06-14T06:19:53;16.00;;;4.20;;
4698;SDS011;33708;49.466;11.176;2023-06-14T06:22:19;15.70;;;4.50;;
4698;SDS011;33708;49.466;11.176;2023-06-14T06:24:45;12.30;;;4.27;;
4698;SDS011;33708;49.466;11.176;2023-06-14T06:27:11;14.00;;;4.40;;
4698;SDS011;33708;49.466;11.176;2023-06-14T06:29:37;12.47;;;3.97;;
4698;SDS011;33708;49.466;11.176;2023-06-14T06:32:03;15.07;;;3.97;;
4698;SDS011;33708;49.466;11.176;2023-06-14T06:34:29;13.80;;;4.20;;
4698;SDS011;33708;49.466;11.176;2023-06-14T06:36:58;14.07;;;4.30;;
4698;SDS011;33708;49.466;11.176;2023-06-14T06:39:23;20.87;;;4.30;;
4698;SDS011;33708;49.466;11.176;2023-06-14T06:41:49;15.57;;;5.63;;
4698;SDS011;33708;49.466;11.176;2023-06-14T06:44:14;15.93;;;5.00;;
4698;SDS011;33708;49.466;11.176;2023-06-14T06:46:40;18.40;;;4.80;;
4698;SDS011;33708;49.466;11.176;2023-06-14T06:49:07;16.50;;;5.33;;
4698;SDS011;33708;49.466;11.176;2023-06-14T06:51:34;14.30;;;4.43;;
4698;SDS011;33708;49.466;11.176;2023-06-14T06:54:07;21.30;;;4.13;;
4698;SDS011;33708;49.466;11.176;2023-06-14T06:56:33;12.37;;;4.47;;
4698;SDS011;33708;49.466;11.176;2023-06-14T06:58:59;13.03;;;3.90;;
4698;SDS011;33708;49.466;11.176;2023-06-14T07:01:24;12.10;;;4.23;;
4698;SDS011;33708;49.466;11.176;2023-06-14T07:03:51;15.27;;;4.17;;
4698;SDS011;33708;49.466;11.176;2023-06-14T07:06:17;11.90;;;4.20;;
4698;SDS011;33708;49.466;11.176;2023-06-14T07:08:46;14.30;;;4.20;;
4698;SDS011;33708;49.466;11.176;2023-06-14T07:11:13;14.90;;;3.87;;
4698;SDS011;33708;49.466;11.176;2023-06-14T07:13:39;11.70;;;3.60;;
4698;SDS011;33708;49.466;11.176;2023-06-14T07:16:05;11.53;;;3.60;;
4698;SDS011;33708;49.466;11.176;2023-06-14T07:18:31;13.30;;;3.90;;
4698;SDS011;33708;49.466;11.176;2023-06-14T07:20:57;13.70;;;4.20;;
4698;SDS011;33708;49.466;11.176;2023-06-14T07:23:23;11.70;;;3.70;;
4698;SDS011;33708;49.466;11.176;2023-06-14T07:25:48;14.33;;;4.13;;
4698;SDS011;33708;49.466;11.176;2023-06-14T07:28:14;16.80;;;3.70;;
4698;SDS011;33708;49.466;11.176;2023-06-14T07:30:41;12.50;;;3.67;;
4698;SDS011;33708;49.466;11.176;2023-06-14T07:33:06;17.77;;;4.37;;
4698;SDS011;33708;49.466;11.176;2023-06-14T07:35:33;12.00;;;4.03;;
4698;SDS011;33708;49.466;11.176;2023-06-14T07:37:59;10.83;;;3.27;;
4698;SDS011;33708;49.466;11.176;2023-06-14T07:40:24;17.77;;;4.30;;
4698;SDS011;33708;49.466;11.176;2023-06-14T07:42:50;11.77;;;3.90;;
4698;SDS011;33708;49.466;11.176;2023-06-14T07:45:16;15.60;;;3.70;;
4698;SDS011;33708;49.466;11.176;2023-06-14T07:47:42;11.40;;;3.47;;
4698;SDS011;33708;49.466;11.176;2023-06-14T07:50:07;15.50;;;4.07;;
4698;SDS011;33708;49.466;11.176;2023-06-14T07:52:33;12.47;;;3.57;;
4698;SDS011;33708;49.466;11.176;2023-06-14T07:54:59;11.60;;;3.50;;
4698;SDS011;33708;49.466;11.176;2023-06-14T07:57:25;14.63;;;4.10;;
4698;SDS011;33708;49.466;11.176;2023-06-14T07:59:50;10.90;;;3.43;;
4698;SDS011;33708;49.466;11.176;2023-06-14T08:02:16;15.93;;;3.57;;
4698;SDS011;33708;49.466;11.176;2023-06-14T08:04:42;16.33;;;3.40;;
4698;SDS011;33708;49.466;11.176;2023-06-14T08:07:08;11.20;;;3.60;;
4698;SDS011;33708;49.466;11.176;2023-06-14T08:09:34;12.40;;;3.70;;
4698;SDS011;33708;49.466;11.176;2023-06-14T08:12:02;13.67;;;4.10;;
4698;SDS011;33708;49.466;11.176;2023-06-14T08:14:29;13.00;;;4.33;;
4698;SDS011;33708;49.466;11.176;2023-06-14T08:16:56;11.90;;;3.90;;
4698;SDS011;33708;49.466;11.176;2023-06-14T08:19:22;13.10;;;3.83;;
4698;SDS011;33708;49.466;11.176;2023-06-14T08:21:47;12.03;;;3.30;;
4698;SDS011;33708;49.466;11.176;2023-06-14T08:24:13;18.87;;;4.50;;
4698;SDS011;33708;49.466;11.176;2023-06-14T08:26:39;16.33;;;4.23;;
4698;SDS011;33708;49.466;11.176;2023-06-14T08:29:05;12.17;;;3.20;;
4698;SDS011;33708;49.466;11.176;2023-06-14T08:31:33;15.57;;;3.57;;
4698;SDS011;33708;49.466;11.176;2023-06-14T08:33:59;12.60;;;3.53;;
4698;SDS011;33708;49.466;11.176;2023-06-14T08:36:24;11.90;;;3.60;;
4698;SDS011;33708;49.466;11.176;2023-06-14T08:38:50;11.73;;;3.30;;
4698;SDS011;33708;49.466;11.176;2023-06-14T08:41:24;17.13;;;3.80;;
4698;SDS011;33708;49.466;11.176;2023-06-14T08:43:52;13.10;;;3.77;;
4698;SDS011;33708;49.466;11.176;2023-06-14T08:46:18;15.47;;;3.60;;
4698;SDS011;33708;49.466;11.176;2023-06-14T08:48:51;12.20;;;3.43;;
4698;SDS011;33708;49.466;11.176;2023-06-14T08:51:20;12.63;;;3.57;;
4698;SDS011;33708;49.466;11.176;2023-06-14T08:53:57;13.37;;;3.67;;
4698;SDS011;33708;49.466;11.176;2023-06-14T08:56:26;14.80;;;4.30;;
4698;SDS011;33708;49.466;11.176;2023-06-14T08:58:56;14.40;;;3.67;;
4698;SDS011;33708;49.466;11.176;2023-06-14T09:01:26;13.90;;;4.10;;
4698;SDS011;33708;49.466;11.176;2023-06-14T09:03:52;19.23;;;4.10;;
4698;SDS011;33708;49.466;11.176;2023-06-14T09:06:20;14.63;;;4.00;;
4698;SDS011;33708;49.466;11.176;2023-06-14T09:08:48;21.27;;;4.20;;
4698;SDS011;33708;49.466;11.176;2023-06-14T09:11:14;12.80;;;3.73;;
4698;SDS011;33708;49.466;11.176;2023-06-14T09:13:43;14.13;;;4.20;;
4698;SDS011;33708;49.466;11.176;2023-06-14T09:16:10;13.27;;;4.13;;
4698;SDS011;33708;49.466;11.176;2023-06-14T09:18:40;13.33;;;4.10;;
4698;SDS011;33708;49.466;11.176;2023-06-14T09:21:08;14.27;;;4.23;;
4698;SDS011;33708;49.466;11.176;2023-06-14T09:23:39;15.43;;;4.40;;
4698;SDS011;33708;49.466;11.176;2023-06-14T09:26:06;15.87;;;4.00;;
4698;SDS011;33708;49.466;11.176;2023-06-14T09:28:33;13.97;;;3.70;;
4698;SDS011;33708;49.466;11.176;2023-06-14T09:31:00;14.93;;;3.90;;
4698;SDS011;33708;49.466;11.176;2023-06-14T09:33:25;12.37;;;4.33;;
4698;SDS011;33708;49.466;11.176;2023-06-14T09:35:52;19.80;;;4.23;;
4698;SDS011;33708;49.466;11.176;2023-06-14T09:38:19;14.30;;;4.40;;
4698;SDS011;33708;49.466;11.176;2023-06-14T09:40:45;11.87;;;3.70;;
4698;SDS011;33708;49.466;11.176;2023-06-14T09:43:11;15.50;;;4.47;;
4698;SDS011;33708;49.466;11.176;2023-06-14T09:45:38;15.77;;;3.90;;
4698;SDS011;33708;49.466;11.176;2023-06-14T09:48:10;16.33;;;4.43;;
4698;SDS011;33708;49.466;11.176;2023-06-14T09:50:37;15.70;;;4.77;;
4698;SDS011;33708;49.466;11.176;2023-06-14T09:53:07;13.77;;;3.80;;
4698;SDS011;33708;49.466;11.176;2023-06-14T09:55:36;17.53;;;4.40;;
4698;SDS011;33708;49.466;11.176;2023-06-14T09:58:04;20.70;;;4.27;;
4698;SDS011;33708;49.466;11.176;2023-06-14T10:00:31;13.50;;;4.60;;
4698;SDS011;33708;49.466;11.176;2023-06-14T10:03:00;13.40;;;4.43;;
4698;SDS011;33708;49.466;11.176;2023-06-14T10:05:31;13.10;;;3.90;;
4698;SDS011;33708;49.466;11.176;2023-06-14T10:08:00;15.03;;;3.93;;
4698;SDS011;33708;49.466;11.176;2023-06-14T10:10:38;13.37;;;4.20;;
4698;SDS011;33708;49.466;11.176;2023-06-14T10:13:05;21.93;;;4.53;;
4698;SDS011;33708;49.466;11.176;2023-06-14T10:15:35;12.47;;;3.60;;
4698;SDS011;33708;49.466;11.176;2023-06-14T10:18:33;18.30;;;4.00;;
4698;SDS011;33708;49.466;11.176;2023-06-14T10:21:16;16.07;;;4.20;;
4698;SDS011;33708;49.466;11.176;2023-06-14T10:23:51;13.17;;;3.77;;
4698;SDS011;33708;49.466;11.176;2023-06-14T10:26:18;18.57;;;4.10;;
4698;SDS011;33708;49.466;11.176;2023-06-14T10:28:56;14.07;;;4.37;;
4698;SDS011;33708;49.466;11.176;2023-06-14T10:34:12;13.03;;;4.10;;
4698;SDS011;33708;49.466;11.176;2023-06-14T10:37:00;15.30;;;3.63;;
4698;SDS011;33708;49.466;11.176;2023-06-14T10:39:27;13.23;;;4.00;;
4698;SDS011;33708;49.466;11.176;2023-06-14T10:41:54;14.00;;;3.83;;
4698;SDS011;33708;49.466;11.176;2023-06-14T10:46:46;16.87;;;4.40;;
4698;SDS011;33708;49.466;11.176;2023-06-14T10:49:12;14.60;;;3.73;;
4698;SDS011;33708;49.466;11.176;2023-06-14T10:51:38;15.73;;;4.10;;
4698;SDS011;33708;49.466;11.176;2023-06-14T10:54:12;21.60;;;3.93;;
4698;SDS011;33708;49.466;11.176;2023-06-14T10:56:38;13.30;;;4.27;;
4698;SDS011;33708;49.466;11.176;2023-06-14T10:59:15;14.93;;;3.73;;
4698;SDS011;33708;49.466;11.176;2023-06-14T11:01:48;12.67;;;4.40;;
4698;SDS011;33708;49.466;11.176;2023-06-14T11:04:48;13.03;;;4.00;;
4698;SDS011;33708;49.466;11.176;2023-06-14T11:10:16;13.27;;;4.17;;
4698;SDS011;33708;49.466;11.176;2023-06-14T11:13:03;15.87;;;4.20;;
4698;SDS011;33708;49.466;11.176;2023-06-14T11:15:32;12.23;;;3.30;;
4698;SDS011;33708;49.466;11.176;2023-06-14T11:18:05;15.40;;;4.40;;
4698;SDS011;33708;49.466;11.176;2023-06-14T11:20:33;14.40;;;3.87;;
4698;SDS011;33708;49.466;11.176;2023-06-14T11:23:01;13.93;;;3.70;;
4698;SDS011;33708;49.466;11.176;2023-06-14T11:25:28;13.80;;;3.70;;
4698;SDS011;33708;49.466;11.176;2023-06-14T11:27:54;13.20;;;3.53;;
4698;SDS011;33708;49.466;11.176;2023-06-14T11:30:20;11.40;;;3.47;;
4698;SDS011;33708;49.466;11.176;2023-06-14T11:32:47;14.27;;;3.53;;
4698;SDS011;33708;49.466;11.176;2023-06-14T11:35:17;15.70;;;3.63;;
4698;SDS011;33708;49.466;11.176;2023-06-14T11:37:43;13.67;;;3.47;;
4698;SDS011;33708;49.466;11.176;2023-06-14T11:40:12;12.20;;;3.63;;
4698;SDS011;33708;49.466;11.176;2023-06-14T11:42:39;13.97;;;3.83;;
4698;SDS011;33708;49.466;11.176;2023-06-14T11:45:09;14.63;;;3.83;;
4698;SDS011;33708;49.466;11.176;2023-06-14T11:47:35;17.80;;;3.70;;
4698;SDS011;33708;49.466;11.176;2023-06-14T11:50:03;11.70;;;3.83;;
4698;SDS011;33708;49.466;11.176;2023-06-14T11:52:30;13.40;;;3.87;;
4698;SDS011;33708;49.466;11.176;2023-06-14T11:54:56;11.97;;;3.37;;
4698;SDS011;33708;49.466;11.176;2023-06-14T11:57:23;11.90;;;3.87;;
4698;SDS011;33708;49.466;11.176;2023-06-14T11:59:49;13.40;;;4.27;;
4698;SDS011;33708;49.466;11.176;2023-06-14T12:02:15;13.70;;;4.00;;
4698;SDS011;33708;49.466;11.176;2023-06-14T12:04:42;16.60;;;3.47;;
4698;SDS011;33708;49.466;11.176;2023-06-14T12:07:09;20.20;;;4.40;;
4698;SDS011;33708;49.466;11.176;2023-06-14T12:12:24;12.20;;;3.37;;
4698;SDS011;33708;49.466;11.176;2023-06-14T12:14:50;22.23;;;3.57;;
4698;SDS011;33708;49.466;11.176;2023-06-14T12:17:17;13.93;;;3.63;;
4698;SDS011;33708;49.466;11.176;2023-06-14T12:19:43;12.00;;;3.87;;
4698;SDS011;33708;49.466;11.176;2023-06-14T12:22:10;11.30;;;3.20;;
4698;SDS011;33708;49.466;11.176;2023-06-14T12:24:36;16.37;;;3.80;;
4698;SDS011;33708;49.466;11.176;2023-06-14T12:27:03;11.17;;;3.63;;
4698;SDS011;33708;49.466;11.176;2023-06-14T12:29:29;17.00;;;3.60;;
4698;SDS011;33708;49.466;11.176;2023-06-14T12:31:55;14.60;;;3.40;;
4698;SDS011;33708;49.466;11.176;2023-06-14T12:34:28;14.47;;;3.33;;
4698;SDS011;33708;49.466;11.176;2023-06-14T12:36:54;13.37;;;3.70;;
4698;SDS011;33708;49.466;11.176;2023-06-14T12:39:20;12.07;;;3.10;;
4698;SDS011;33708;49.466;11.176;2023-06-14T12:41:46;9.80;;;3.00;;
4698;SDS011;33708;49.466;11.176;2023-06-14T12:44:15;11.40;;;3.40;;
4698;SDS011;33708;49.466;11.176;2023-06-14T12:46:41;12.80;;;3.70;;
4698;SDS011;33708;49.466;11.176;2023-06-14T12:49:09;12.33;;;3.40;;
4698;SDS011;33708;49.466;11.176;2023-06-14T12:51:38;12.23;;;3.83;;
4698;SDS011;33708;49.466;11.176;2023-06-14T12:54:05;11.70;;;3.50;;
4698;SDS011;33708;49.466;11.176;2023-06-14T12:56:31;10.93;;;3.13;;
4698;SDS011;33708;49.466;11.176;2023-06-14T12:58:57;13.07;;;3.70;;
4698;SDS011;33708;49.466;11.176;2023-06-14T13:01:23;15.00;;;3.80;;
4698;SDS011;33708;49.466;11.176;2023-06-14T13:03:49;11.00;;;3.40;;
4698;SDS011;33708;49.466;11.176;2023-06-14T13:06:16;10.60;;;3.20;;
4698;SDS011;33708;49.466;11.176;2023-06-14T13:08:42;15.53;;;3.57;;
4698;SDS011;33708;49.466;11.176;2023-06-14T13:11:08;13.70;;;3.67;;
4698;SDS011;33708;49.466;11.176;2023-06-14T13:13:34;12.30;;;3.83;;
4698;SDS011;33708;49.466;11.176;2023-06-14T13:16:00;11.83;;;3.43;;
4698;SDS011;33708;49.466;11.176;2023-06-14T13:18:25;12.47;;;3.80;;
4698;SDS011;33708;49.466;11.176;2023-06-14T13:20:51;12.80;;;3.57;;
4698;SDS011;33708;49.466;11.176;2023-06-14T13:23:17;12.80;;;4.47;;
4698;SDS011;33708;49.466;11.176;2023-06-14T13:25:42;15.47;;;3.70;;
4698;SDS011;33708;49.466;11.176;2023-06-14T13:28:09;16.90;;;3.93;;
4698;SDS011;33708;49.466;11.176;2023-06-14T13:30:34;15.23;;;3.53;;
4698;SDS011;33708;49.466;11.176;2023-06-14T13:33:00;11.50;;;3.60;;
4698;SDS011;33708;49.466;11.176;2023-06-14T13:35:26;11.80;;;3.63;;
4698;SDS011;33708;49.466;11.176;2023-06-14T13:37:52;11.93;;;3.87;;
4698;SDS011;33708;49.466;11.176;2023-06-14T13:40:18;11.07;;;3.40;;
4698;SDS011;33708;49.466;11.176;2023-06-14T13:42:44;11.90;;;4.10;;
4698;SDS011;33708;49.466;11.176;2023-06-14T13:45:11;13.77;;;4.03;;
4698;SDS011;33708;49.466;11.176;2023-06-14T13:47:38;11.57;;;3.37;;
4698;SDS011;33708;49.466;11.176;2023-06-14T13:50:04;13.27;;;3.77;;
4698;SDS011;33708;49.466;11.176;2023-06-14T13:52:30;10.67;;;3.50;;
4698;SDS011;33708;49.466;11.176;2023-06-14T13:54:56;13.90;;;3.80;;
4698;SDS011;33708;49.466;11.176;2023-06-14T13:57:22;14.63;;;3.57;;
4698;SDS011;33708;49.466;11.176;2023-06-14T13:59:47;12.10;;;3.80;;
4698;SDS011;33708;49.466;11.176;2023-06-14T14:02:13;15.43;;;3.60;;
4698;SDS011;33708;49.466;11.176;2023-06-14T14:04:39;13.00;;;3.20;;
4698;SDS011;33708;49.466;11.176;2023-06-14T14:07:05;14.70;;;4.03;;
4698;SDS011;33708;49.466;11.176;2023-06-14T14:09:32;12.13;;;3.57;;
4698;SDS011;33708;49.466;11.176;2023-06-14T14:11:59;11.80;;;3.33;;
4698;SDS011;33708;49.466;11.176;2023-06-14T14:14:27;15.47;;;3.60;;
4698;SDS011;33708;49.466;11.176;2023-06-14T14:16:52;16.70;;;3.43;;
4698;SDS011;33708;49.466;11.176;2023-06-14T14:19:19;12.37;;;3.73;;
4698;SDS011;33708;49.466;11.176;2023-06-14T14:21:46;13.07;;;3.33;;
4698;SDS011;33708;49.466;11.176;2023-06-14T14:24:11;15.63;;;3.80;;
4698;SDS011;33708;49.466;11.176;2023-06-14T14:26:37;14.00;;;3.87;;
4698;SDS011;33708;49.466;11.176;2023-06-14T14:29:03;12.83;;;3.50;;
4698;SDS011;33708;49.466;11.176;2023-06-14T14:31:29;12.60;;;3.43;;
4698;SDS011;33708;49.466;11.176;2023-06-14T14:33:55;16.20;;;3.57;;
4698;SDS011;33708;49.466;11.176;2023-06-14T14:36:21;10.80;;;3.40;;
4698;SDS011;33708;49.466;11.176;2023-06-14T14:38:46;18.50;;;3.60;;
4698;SDS011;33708;49.466;11.176;2023-06-14T14:41:12;14.17;;;3.20;;
4698;SDS011;33708;49.466;11.176;2023-06-14T14:43:38;11.17;;;3.60;;
4698;SDS011;33708;49.466;11.176;2023-06-14T14:46:04;11.83;;;3.23;;
4698;SDS011;33708;49.466;11.176;2023-06-14T14:48:30;12.73;;;3.33;;
4698;SDS011;33708;49.466;11.176;2023-06-14T14:50:56;13.90;;;3.67;;